sensor_id;sensor_type;location;lat;lon;timestamp;P1;durP1;ratioP1;P2;durP2;ratioP2
5483;SDS011;2764;48.794;8.326;2022-11-09T00:00:05;12.10;;;4.30;;
5483;SDS011;2764;48.794;8.326;2022-11-09T00:01:10;10.20;;;4.00;;
5483;SDS011;2764;48.794;8.326;2022-11-09T00:02:12;6.33;;;4.47;;
5483;SDS011;2764;48.794;8.326;2022-11-09T00:03:14;5.50;;;3.90;;
5483;SDS011;2764;48.794;8.326;2022-11-09T00:04:20;9.00;;;3.67;;
5483;SDS011;2764;48.794;8.326;2022-11-09T00:05:22;6.93;;;4.37;;
5483;SDS011;2764;48.794;8.326;2022-11-09T00:06:24;9.40;;;4.50;;
5483;SDS011;2764;48.794;8.326;2022-11-09T00:07:28;9.10;;;3.70;;
5483;SDS011;2764;48.794;8.326;2022-11-09T00:08:32;6.37;;;4.13;;
5483;SDS011;2764;48.794;8.326;2022-11-09T00:09:33;4.53;;;3.80;;
5483;SDS011;2764;48.794;8.326;2022-11-09T00:10:36;4.23;;;3.87;;
5483;SDS011;2764;48.794;8.326;2022-11-09T00:11:38;3.93;;;3.57;;
5483;SDS011;2764;48.794;8.326;2022-11-09T00:12:40;9.50;;;4.00;;
5483;SDS011;2764;48.794;8.326;2022-11-09T00:13:42;4.30;;;3.60;;
5483;SDS011;2764;48.794;8.326;2022-11-09T00:14:44;9.63;;;3.93;;
5483;SDS011;2764;48.794;8.326;2022-11-09T00:15:46;4.03;;;3.50;;
5483;SDS011;2764;48.794;8.326;2022-11-09T00:16:48;3.70;;;3.43;;
5483;SDS011;2764;48.794;8.326;2022-11-09T00:17:50;6.83;;;4.10;;
5483;SDS011;2764;48.794;8.326;2022-11-09T00:18:51;7.00;;;3.30;;
5483;SDS011;2764;48.794;8.326;2022-11-09T00:19:54;16.80;;;3.40;;
5483;SDS011;2764;48.794;8.326;2022-11-09T00:20:56;6.17;;;4.27;;
5483;SDS011;2764;48.794;8.326;2022-11-09T00:21:58;6.93;;;3.40;;
5483;SDS011;2764;48.794;8.326;2022-11-09T00:23:00;14.50;;;10.30;;
5483;SDS011;2764;48.794;8.326;2022-11-09T00:24:02;10.70;;;9.70;;
5483;SDS011;2764;48.794;8.326;2022-11-09T00:25:04;11.87;;;10.67;;
5483;SDS011;2764;48.794;8.326;2022-11-09T00:26:07;15.80;;;8.33;;
5483;SDS011;2764;48.794;8.326;2022-11-09T00:27:10;10.90;;;8.63;;
5483;SDS011;2764;48.794;8.326;2022-11-09T00:28:17;5.87;;;4.83;;
5483;SDS011;2764;48.794;8.326;2022-11-09T00:29:19;4.20;;;3.63;;
5483;SDS011;2764;48.794;8.326;2022-11-09T00:30:21;16.17;;;4.80;;
5483;SDS011;2764;48.794;8.326;2022-11-09T00:31:26;9.20;;;5.13;;
5483;SDS011;2764;48.794;8.326;2022-11-09T00:32:28;6.70;;;4.63;;
5483;SDS011;2764;48.794;8.326;2022-11-09T00:33:30;9.10;;;4.67;;
5483;SDS011;2764;48.794;8.326;2022-11-09T00:34:35;5.90;;;3.93;;
5483;SDS011;2764;48.794;8.326;2022-11-09T00:35:37;10.17;;;5.13;;
5483;SDS011;2764;48.794;8.326;2022-11-09T00:36:41;8.53;;;4.30;;
5483;SDS011;2764;48.794;8.326;2022-11-09T00:37:42;4.77;;;4.33;;
5483;SDS011;2764;48.794;8.326;2022-11-09T00:38:48;5.50;;;4.23;;
5483;SDS011;2764;48.794;8.326;2022-11-09T00:39:51;4.67;;;4.27;;
5483;SDS011;2764;48.794;8.326;2022-11-09T00:40:53;7.63;;;5.50;;
5483;SDS011;2764;48.794;8.326;2022-11-09T00:41:54;6.07;;;5.20;;
5483;SDS011;2764;48.794;8.326;2022-11-09T00:42:56;9.73;;;5.50;;
5483;SDS011;2764;48.794;8.326;2022-11-09T00:43:58;10.13;;;5.17;;
5483;SDS011;2764;48.794;8.326;2022-11-09T00:45:00;6.40;;;5.10;;
5483;SDS011;2764;48.794;8.326;2022-11-09T00:46:03;8.20;;;5.33;;
5483;SDS011;2764;48.794;8.326;2022-11-09T00:47:05;5.67;;;5.03;;
5483;SDS011;2764;48.794;8.326;2022-11-09T00:48:08;14.33;;;6.20;;
5483;SDS011;2764;48.794;8.326;2022-11-09T00:49:11;5.27;;;4.77;;
5483;SDS011;2764;48.794;8.326;2022-11-09T00:50:13;4.93;;;4.50;;
5483;SDS011;2764;48.794;8.326;2022-11-09T00:51:15;6.90;;;5.30;;
5483;SDS011;2764;48.794;8.326;2022-11-09T00:52:17;9.50;;;5.53;;
5483;SDS011;2764;48.794;8.326;2022-11-09T00:53:19;5.60;;;5.10;;
5483;SDS011;2764;48.794;8.326;2022-11-09T00:54:22;9.50;;;5.80;;
5483;SDS011;2764;48.794;8.326;2022-11-09T00:55:25;7.17;;;5.50;;
5483;SDS011;2764;48.794;8.326;2022-11-09T00:56:27;8.23;;;5.20;;
5483;SDS011;2764;48.794;8.326;2022-11-09T00:57:31;8.53;;;5.70;;
5483;SDS011;2764;48.794;8.326;2022-11-09T00:58:34;5.70;;;5.20;;
5483;SDS011;2764;48.794;8.326;2022-11-09T00:59:39;7.10;;;6.10;;
5483;SDS011;2764;48.794;8.326;2022-11-09T01:00:41;9.83;;;7.97;;
5483;SDS011;2764;48.794;8.326;2022-11-09T01:01:44;11.77;;;7.77;;
5483;SDS011;2764;48.794;8.326;2022-11-09T01:02:46;12.20;;;6.50;;
5483;SDS011;2764;48.794;8.326;2022-11-09T01:03:50;6.90;;;6.20;;
5483;SDS011;2764;48.794;8.326;2022-11-09T01:04:52;12.57;;;6.60;;
5483;SDS011;2764;48.794;8.326;2022-11-09T01:05:54;13.77;;;6.40;;
5483;SDS011;2764;48.794;8.326;2022-11-09T01:07:00;12.80;;;6.57;;
5483;SDS011;2764;48.794;8.326;2022-11-09T01:08:02;7.73;;;6.60;;
5483;SDS011;2764;48.794;8.326;2022-11-09T01:09:08;7.60;;;6.43;;
5483;SDS011;2764;48.794;8.326;2022-11-09T01:10:10;11.90;;;6.70;;
5483;SDS011;2764;48.794;8.326;2022-11-09T01:11:12;13.73;;;8.17;;
5483;SDS011;2764;48.794;8.326;2022-11-09T01:12:15;10.50;;;7.93;;
5483;SDS011;2764;48.794;8.326;2022-11-09T01:13:22;8.50;;;7.00;;
5483;SDS011;2764;48.794;8.326;2022-11-09T01:14:25;9.27;;;7.50;;
5483;SDS011;2764;48.794;8.326;2022-11-09T01:15:27;9.93;;;8.70;;
5483;SDS011;2764;48.794;8.326;2022-11-09T01:16:29;12.13;;;8.40;;
5483;SDS011;2764;48.794;8.326;2022-11-09T01:17:31;9.33;;;8.40;;
5483;SDS011;2764;48.794;8.326;2022-11-09T01:18:33;10.60;;;7.67;;
5483;SDS011;2764;48.794;8.326;2022-11-09T01:19:35;10.50;;;8.20;;
5483;SDS011;2764;48.794;8.326;2022-11-09T01:20:43;9.70;;;8.00;;
5483;SDS011;2764;48.794;8.326;2022-11-09T01:21:46;10.73;;;7.77;;
5483;SDS011;2764;48.794;8.326;2022-11-09T01:22:48;13.00;;;7.40;;
5483;SDS011;2764;48.794;8.326;2022-11-09T01:23:50;10.87;;;7.30;;
5483;SDS011;2764;48.794;8.326;2022-11-09T01:24:51;12.80;;;7.17;;
5483;SDS011;2764;48.794;8.326;2022-11-09T01:26:00;13.03;;;8.07;;
5483;SDS011;2764;48.794;8.326;2022-11-09T01:27:04;12.60;;;8.13;;
5483;SDS011;2764;48.794;8.326;2022-11-09T01:28:06;8.53;;;7.63;;
5483;SDS011;2764;48.794;8.326;2022-11-09T01:29:09;13.47;;;9.50;;
5483;SDS011;2764;48.794;8.326;2022-11-09T01:30:11;13.90;;;9.10;;
5483;SDS011;2764;48.794;8.326;2022-11-09T01:31:15;13.60;;;8.80;;
5483;SDS011;2764;48.794;8.326;2022-11-09T01:32:18;12.03;;;9.07;;
5483;SDS011;2764;48.794;8.326;2022-11-09T01:33:20;11.80;;;9.63;;
5483;SDS011;2764;48.794;8.326;2022-11-09T01:34:22;14.60;;;10.00;;
5483;SDS011;2764;48.794;8.326;2022-11-09T01:35:24;13.70;;;9.13;;
5483;SDS011;2764;48.794;8.326;2022-11-09T01:36:26;13.17;;;9.57;;
5483;SDS011;2764;48.794;8.326;2022-11-09T01:37:28;12.10;;;10.33;;
5483;SDS011;2764;48.794;8.326;2022-11-09T01:38:31;12.57;;;10.10;;
5483;SDS011;2764;48.794;8.326;2022-11-09T01:39:35;14.50;;;9.43;;
5483;SDS011;2764;48.794;8.326;2022-11-09T01:40:38;14.30;;;9.77;;
5483;SDS011;2764;48.794;8.326;2022-11-09T01:41:40;19.10;;;10.30;;
5483;SDS011;2764;48.794;8.326;2022-11-09T01:42:42;14.18;;;9.88;;
5483;SDS011;2764;48.794;8.326;2022-11-09T01:43:44;14.43;;;9.50;;
5483;SDS011;2764;48.794;8.326;2022-11-09T01:44:47;17.07;;;10.10;;
5483;SDS011;2764;48.794;8.326;2022-11-09T01:46:03;14.20;;;10.90;;
5483;SDS011;2764;48.794;8.326;2022-11-09T01:47:14;15.00;;;10.20;;
5483;SDS011;2764;48.794;8.326;2022-11-09T01:48:31;13.73;;;10.03;;
5483;SDS011;2764;48.794;8.326;2022-11-09T01:49:59;20.00;;;10.57;;
5483;SDS011;2764;48.794;8.326;2022-11-09T01:51:03;14.73;;;11.70;;
5483;SDS011;2764;48.794;8.326;2022-11-09T01:52:14;14.63;;;9.73;;
5483;SDS011;2764;48.794;8.326;2022-11-09T01:53:21;15.37;;;11.40;;
5483;SDS011;2764;48.794;8.326;2022-11-09T01:54:28;13.50;;;10.87;;
5483;SDS011;2764;48.794;8.326;2022-11-09T01:55:32;14.20;;;11.77;;
5483;SDS011;2764;48.794;8.326;2022-11-09T01:56:34;14.30;;;11.30;;
5483;SDS011;2764;48.794;8.326;2022-11-09T01:57:37;11.80;;;10.30;;
5483;SDS011;2764;48.794;8.326;2022-11-09T01:58:52;21.23;;;10.10;;
5483;SDS011;2764;48.794;8.326;2022-11-09T02:00:06;17.00;;;10.33;;
5483;SDS011;2764;48.794;8.326;2022-11-09T02:01:13;16.30;;;10.87;;
5483;SDS011;2764;48.794;8.326;2022-11-09T02:02:17;18.20;;;11.17;;
5483;SDS011;2764;48.794;8.326;2022-11-09T02:03:21;17.73;;;12.13;;
5483;SDS011;2764;48.794;8.326;2022-11-09T02:04:29;19.03;;;11.27;;
5483;SDS011;2764;48.794;8.326;2022-11-09T02:05:35;17.43;;;11.70;;
5483;SDS011;2764;48.794;8.326;2022-11-09T02:06:40;17.70;;;10.83;;
5483;SDS011;2764;48.794;8.326;2022-11-09T02:07:42;13.33;;;10.60;;
5483;SDS011;2764;48.794;8.326;2022-11-09T02:08:47;16.33;;;11.33;;
5483;SDS011;2764;48.794;8.326;2022-11-09T02:11:15;15.97;;;10.50;;
5483;SDS011;2764;48.794;8.326;2022-11-09T02:12:21;20.10;;;12.43;;
5483;SDS011;2764;48.794;8.326;2022-11-09T02:13:24;14.60;;;11.47;;
5483;SDS011;2764;48.794;8.326;2022-11-09T02:14:29;19.97;;;11.53;;
5483;SDS011;2764;48.794;8.326;2022-11-09T02:15:33;14.93;;;12.40;;
5483;SDS011;2764;48.794;8.326;2022-11-09T02:16:36;16.80;;;11.93;;
5483;SDS011;2764;48.794;8.326;2022-11-09T02:17:38;19.03;;;12.77;;
5483;SDS011;2764;48.794;8.326;2022-11-09T02:18:47;20.07;;;12.57;;
5483;SDS011;2764;48.794;8.326;2022-11-09T02:19:53;25.40;;;12.70;;
5483;SDS011;2764;48.794;8.326;2022-11-09T02:20:57;18.90;;;12.90;;
5483;SDS011;2764;48.794;8.326;2022-11-09T02:21:59;17.83;;;12.60;;
5483;SDS011;2764;48.794;8.326;2022-11-09T02:23:01;17.70;;;12.67;;
5483;SDS011;2764;48.794;8.326;2022-11-09T02:24:03;22.27;;;12.23;;
5483;SDS011;2764;48.794;8.326;2022-11-09T02:25:05;19.17;;;12.00;;
5483;SDS011;2764;48.794;8.326;2022-11-09T02:26:08;15.80;;;12.40;;
5483;SDS011;2764;48.794;8.326;2022-11-09T02:27:13;13.47;;;11.13;;
5483;SDS011;2764;48.794;8.326;2022-11-09T02:28:15;19.90;;;12.20;;
5483;SDS011;2764;48.794;8.326;2022-11-09T02:29:19;17.43;;;12.20;;
5483;SDS011;2764;48.794;8.326;2022-11-09T02:30:24;16.83;;;11.43;;
5483;SDS011;2764;48.794;8.326;2022-11-09T02:31:27;24.02;;;13.90;;
5483;SDS011;2764;48.794;8.326;2022-11-09T02:32:34;17.60;;;12.43;;
5483;SDS011;2764;48.794;8.326;2022-11-09T02:33:41;23.30;;;11.47;;
5483;SDS011;2764;48.794;8.326;2022-11-09T02:34:45;20.13;;;12.83;;
5483;SDS011;2764;48.794;8.326;2022-11-09T02:35:47;21.40;;;12.27;;
5483;SDS011;2764;48.794;8.326;2022-11-09T02:36:49;14.47;;;11.20;;
5483;SDS011;2764;48.794;8.326;2022-11-09T02:37:52;19.20;;;11.40;;
5483;SDS011;2764;48.794;8.326;2022-11-09T02:38:56;18.10;;;12.00;;
5483;SDS011;2764;48.794;8.326;2022-11-09T02:39:58;19.93;;;11.23;;
5483;SDS011;2764;48.794;8.326;2022-11-09T02:41:04;20.80;;;12.48;;
5483;SDS011;2764;48.794;8.326;2022-11-09T02:42:09;16.60;;;11.82;;
5483;SDS011;2764;48.794;8.326;2022-11-09T02:43:21;14.20;;;11.13;;
5483;SDS011;2764;48.794;8.326;2022-11-09T02:44:24;21.70;;;11.87;;
5483;SDS011;2764;48.794;8.326;2022-11-09T02:45:28;19.90;;;11.83;;
5483;SDS011;2764;48.794;8.326;2022-11-09T02:46:31;17.60;;;12.23;;
5483;SDS011;2764;48.794;8.326;2022-11-09T02:47:35;15.77;;;12.10;;
5483;SDS011;2764;48.794;8.326;2022-11-09T02:48:37;15.43;;;10.90;;
5483;SDS011;2764;48.794;8.326;2022-11-09T02:49:39;12.50;;;10.70;;
5483;SDS011;2764;48.794;8.326;2022-11-09T02:50:41;18.80;;;12.97;;
5483;SDS011;2764;48.794;8.326;2022-11-09T02:51:44;15.63;;;11.33;;
5483;SDS011;2764;48.794;8.326;2022-11-09T02:52:46;19.60;;;12.23;;
5483;SDS011;2764;48.794;8.326;2022-11-09T02:53:48;19.93;;;11.80;;
5483;SDS011;2764;48.794;8.326;2022-11-09T02:54:51;26.53;;;12.10;;
5483;SDS011;2764;48.794;8.326;2022-11-09T02:55:52;16.77;;;11.00;;
5483;SDS011;2764;48.794;8.326;2022-11-09T02:56:54;14.88;;;11.50;;
5483;SDS011;2764;48.794;8.326;2022-11-09T02:57:56;13.27;;;10.90;;
5483;SDS011;2764;48.794;8.326;2022-11-09T02:58:58;15.88;;;10.65;;
5483;SDS011;2764;48.794;8.326;2022-11-09T03:00:00;16.80;;;11.27;;
5483;SDS011;2764;48.794;8.326;2022-11-09T03:01:02;15.67;;;10.57;;
5483;SDS011;2764;48.794;8.326;2022-11-09T03:02:05;11.50;;;9.60;;
5483;SDS011;2764;48.794;8.326;2022-11-09T03:03:06;14.87;;;11.13;;
5483;SDS011;2764;48.794;8.326;2022-11-09T03:04:08;19.43;;;11.63;;
5483;SDS011;2764;48.794;8.326;2022-11-09T03:05:10;19.50;;;11.00;;
5483;SDS011;2764;48.794;8.326;2022-11-09T03:06:12;11.47;;;10.13;;
5483;SDS011;2764;48.794;8.326;2022-11-09T03:07:14;16.57;;;11.33;;
5483;SDS011;2764;48.794;8.326;2022-11-09T03:08:16;19.65;;;11.55;;
5483;SDS011;2764;48.794;8.326;2022-11-09T03:09:19;17.53;;;11.60;;
5483;SDS011;2764;48.794;8.326;2022-11-09T03:10:21;16.87;;;12.60;;
5483;SDS011;2764;48.794;8.326;2022-11-09T03:11:24;12.80;;;9.87;;
5483;SDS011;2764;48.794;8.326;2022-11-09T03:12:26;21.33;;;11.00;;
5483;SDS011;2764;48.794;8.326;2022-11-09T03:13:32;21.90;;;11.30;;
5483;SDS011;2764;48.794;8.326;2022-11-09T03:14:35;15.37;;;10.30;;
5483;SDS011;2764;48.794;8.326;2022-11-09T03:15:39;11.97;;;9.57;;
5483;SDS011;2764;48.794;8.326;2022-11-09T03:16:42;13.53;;;9.60;;
5483;SDS011;2764;48.794;8.326;2022-11-09T03:17:51;12.37;;;10.83;;
5483;SDS011;2764;48.794;8.326;2022-11-09T03:18:52;17.63;;;9.33;;
5483;SDS011;2764;48.794;8.326;2022-11-09T03:19:54;13.27;;;9.60;;
5483;SDS011;2764;48.794;8.326;2022-11-09T03:21:00;12.20;;;8.80;;
5483;SDS011;2764;48.794;8.326;2022-11-09T03:22:03;12.60;;;9.40;;
5483;SDS011;2764;48.794;8.326;2022-11-09T03:23:05;13.43;;;9.60;;
5483;SDS011;2764;48.794;8.326;2022-11-09T03:24:07;11.93;;;9.30;;
5483;SDS011;2764;48.794;8.326;2022-11-09T03:25:14;12.30;;;8.93;;
5483;SDS011;2764;48.794;8.326;2022-11-09T03:26:16;17.07;;;9.70;;
5483;SDS011;2764;48.794;8.326;2022-11-09T03:27:18;15.30;;;9.90;;
5483;SDS011;2764;48.794;8.326;2022-11-09T03:28:19;13.53;;;8.70;;
5483;SDS011;2764;48.794;8.326;2022-11-09T03:29:24;13.40;;;8.70;;
5483;SDS011;2764;48.794;8.326;2022-11-09T03:30:26;17.63;;;10.37;;
5483;SDS011;2764;48.794;8.326;2022-11-09T03:31:29;13.40;;;9.90;;
5483;SDS011;2764;48.794;8.326;2022-11-09T03:32:33;13.97;;;9.50;;
5483;SDS011;2764;48.794;8.326;2022-11-09T03:33:36;14.33;;;9.57;;
5483;SDS011;2764;48.794;8.326;2022-11-09T03:34:38;11.60;;;10.10;;
5483;SDS011;2764;48.794;8.326;2022-11-09T03:35:40;10.40;;;9.13;;
5483;SDS011;2764;48.794;8.326;2022-11-09T03:36:44;11.23;;;8.70;;
5483;SDS011;2764;48.794;8.326;2022-11-09T03:37:47;10.83;;;7.30;;
5483;SDS011;2764;48.794;8.326;2022-11-09T03:38:49;12.87;;;8.47;;
5483;SDS011;2764;48.794;8.326;2022-11-09T03:39:51;9.47;;;8.50;;
5483;SDS011;2764;48.794;8.326;2022-11-09T03:40:52;11.97;;;7.53;;
5483;SDS011;2764;48.794;8.326;2022-11-09T03:41:54;11.43;;;8.40;;
5483;SDS011;2764;48.794;8.326;2022-11-09T03:42:57;9.80;;;8.77;;
5483;SDS011;2764;48.794;8.326;2022-11-09T03:44:01;9.93;;;8.00;;
5483;SDS011;2764;48.794;8.326;2022-11-09T03:45:04;15.17;;;9.30;;
5483;SDS011;2764;48.794;8.326;2022-11-09T03:46:06;12.70;;;8.50;;
5483;SDS011;2764;48.794;8.326;2022-11-09T03:47:11;19.00;;;8.50;;
5483;SDS011;2764;48.794;8.326;2022-11-09T03:48:13;11.30;;;8.00;;
5483;SDS011;2764;48.794;8.326;2022-11-09T03:49:16;12.00;;;7.97;;
5483;SDS011;2764;48.794;8.326;2022-11-09T03:50:18;11.03;;;7.80;;
5483;SDS011;2764;48.794;8.326;2022-11-09T03:51:20;16.17;;;8.60;;
5483;SDS011;2764;48.794;8.326;2022-11-09T03:52:22;14.20;;;8.23;;
5483;SDS011;2764;48.794;8.326;2022-11-09T03:53:24;12.17;;;8.10;;
5483;SDS011;2764;48.794;8.326;2022-11-09T03:54:26;10.40;;;7.80;;
5483;SDS011;2764;48.794;8.326;2022-11-09T03:55:27;15.20;;;8.03;;
5483;SDS011;2764;48.794;8.326;2022-11-09T03:56:29;8.40;;;7.57;;
5483;SDS011;2764;48.794;8.326;2022-11-09T03:57:31;8.40;;;7.37;;
5483;SDS011;2764;48.794;8.326;2022-11-09T03:58:34;8.87;;;7.43;;
5483;SDS011;2764;48.794;8.326;2022-11-09T03:59:36;10.73;;;7.00;;
5483;SDS011;2764;48.794;8.326;2022-11-09T04:00:39;9.17;;;7.40;;
5483;SDS011;2764;48.794;8.326;2022-11-09T04:01:41;11.80;;;7.07;;
5483;SDS011;2764;48.794;8.326;2022-11-09T04:02:43;11.53;;;7.40;;
5483;SDS011;2764;48.794;8.326;2022-11-09T04:03:45;8.83;;;6.57;;
5483;SDS011;2764;48.794;8.326;2022-11-09T04:04:48;10.03;;;7.00;;
5483;SDS011;2764;48.794;8.326;2022-11-09T04:05:51;12.97;;;8.10;;
5483;SDS011;2764;48.794;8.326;2022-11-09T04:06:53;9.47;;;7.37;;
5483;SDS011;2764;48.794;8.326;2022-11-09T04:07:55;14.20;;;8.20;;
5483;SDS011;2764;48.794;8.326;2022-11-09T04:08:59;15.30;;;8.37;;
5483;SDS011;2764;48.794;8.326;2022-11-09T04:10:01;10.90;;;7.60;;
5483;SDS011;2764;48.794;8.326;2022-11-09T04:11:04;9.20;;;7.37;;
5483;SDS011;2764;48.794;8.326;2022-11-09T04:12:05;9.03;;;8.00;;
5483;SDS011;2764;48.794;8.326;2022-11-09T04:13:08;9.77;;;7.00;;
5483;SDS011;2764;48.794;8.326;2022-11-09T04:14:10;7.80;;;7.07;;
5483;SDS011;2764;48.794;8.326;2022-11-09T04:15:12;14.73;;;7.43;;
5483;SDS011;2764;48.794;8.326;2022-11-09T04:16:14;13.80;;;6.40;;
5483;SDS011;2764;48.794;8.326;2022-11-09T04:17:17;8.83;;;5.90;;
5483;SDS011;2764;48.794;8.326;2022-11-09T04:18:20;7.20;;;5.63;;
5483;SDS011;2764;48.794;8.326;2022-11-09T04:19:22;10.93;;;5.97;;
5483;SDS011;2764;48.794;8.326;2022-11-09T04:20:26;6.40;;;5.80;;
5483;SDS011;2764;48.794;8.326;2022-11-09T04:21:29;6.40;;;5.77;;
5483;SDS011;2764;48.794;8.326;2022-11-09T04:22:33;6.40;;;5.77;;
5483;SDS011;2764;48.794;8.326;2022-11-09T04:23:36;11.27;;;5.23;;
5483;SDS011;2764;48.794;8.326;2022-11-09T04:24:38;10.20;;;6.57;;
5483;SDS011;2764;48.794;8.326;2022-11-09T04:25:41;6.47;;;5.97;;
5483;SDS011;2764;48.794;8.326;2022-11-09T04:26:45;8.53;;;6.30;;
5483;SDS011;2764;48.794;8.326;2022-11-09T04:27:52;8.53;;;6.10;;
5483;SDS011;2764;48.794;8.326;2022-11-09T04:28:56;7.57;;;6.87;;
5483;SDS011;2764;48.794;8.326;2022-11-09T04:29:58;8.70;;;6.23;;
5483;SDS011;2764;48.794;8.326;2022-11-09T04:31:00;9.30;;;6.73;;
5483;SDS011;2764;48.794;8.326;2022-11-09T04:32:04;13.63;;;7.30;;
5483;SDS011;2764;48.794;8.326;2022-11-09T04:33:06;7.93;;;7.20;;
5483;SDS011;2764;48.794;8.326;2022-11-09T04:34:08;11.40;;;8.00;;
5483;SDS011;2764;48.794;8.326;2022-11-09T04:35:09;12.82;;;8.60;;
5483;SDS011;2764;48.794;8.326;2022-11-09T04:36:12;18.53;;;9.60;;
5483;SDS011;2764;48.794;8.326;2022-11-09T04:37:14;9.07;;;8.13;;
5483;SDS011;2764;48.794;8.326;2022-11-09T04:38:18;14.37;;;8.97;;
5483;SDS011;2764;48.794;8.326;2022-11-09T04:39:22;12.60;;;8.80;;
5483;SDS011;2764;48.794;8.326;2022-11-09T04:40:24;11.93;;;7.23;;
5483;SDS011;2764;48.794;8.326;2022-11-09T04:41:27;8.50;;;7.70;;
5483;SDS011;2764;48.794;8.326;2022-11-09T04:42:28;11.68;;;8.32;;
5483;SDS011;2764;48.794;8.326;2022-11-09T04:43:31;8.37;;;6.87;;
5483;SDS011;2764;48.794;8.326;2022-11-09T04:44:33;8.53;;;6.97;;
5483;SDS011;2764;48.794;8.326;2022-11-09T04:45:37;13.20;;;7.77;;
5483;SDS011;2764;48.794;8.326;2022-11-09T04:46:40;14.47;;;7.47;;
5483;SDS011;2764;48.794;8.326;2022-11-09T04:47:43;7.53;;;6.87;;
5483;SDS011;2764;48.794;8.326;2022-11-09T04:48:46;14.60;;;6.93;;
5483;SDS011;2764;48.794;8.326;2022-11-09T04:49:51;8.90;;;6.80;;
5483;SDS011;2764;48.794;8.326;2022-11-09T04:51:01;8.90;;;6.30;;
5483;SDS011;2764;48.794;8.326;2022-11-09T04:52:05;17.63;;;6.37;;
5483;SDS011;2764;48.794;8.326;2022-11-09T04:53:08;10.10;;;7.07;;
5483;SDS011;2764;48.794;8.326;2022-11-09T04:54:12;8.93;;;6.63;;
5483;SDS011;2764;48.794;8.326;2022-11-09T04:55:14;7.00;;;6.30;;
5483;SDS011;2764;48.794;8.326;2022-11-09T04:56:16;9.13;;;5.93;;
5483;SDS011;2764;48.794;8.326;2022-11-09T04:57:18;13.50;;;7.72;;
5483;SDS011;2764;48.794;8.326;2022-11-09T04:58:22;8.03;;;6.57;;
5483;SDS011;2764;48.794;8.326;2022-11-09T04:59:25;7.60;;;6.63;;
5483;SDS011;2764;48.794;8.326;2022-11-09T05:00:27;6.53;;;5.90;;
5483;SDS011;2764;48.794;8.326;2022-11-09T05:01:29;11.80;;;7.30;;
5483;SDS011;2764;48.794;8.326;2022-11-09T05:02:32;13.60;;;8.20;;
5483;SDS011;2764;48.794;8.326;2022-11-09T05:03:34;13.17;;;9.17;;
5483;SDS011;2764;48.794;8.326;2022-11-09T05:04:35;8.30;;;6.83;;
5483;SDS011;2764;48.794;8.326;2022-11-09T05:05:37;9.73;;;7.80;;
5483;SDS011;2764;48.794;8.326;2022-11-09T05:06:48;7.23;;;6.50;;
5483;SDS011;2764;48.794;8.326;2022-11-09T05:07:51;8.80;;;6.50;;
5483;SDS011;2764;48.794;8.326;2022-11-09T05:08:53;9.40;;;7.00;;
5483;SDS011;2764;48.794;8.326;2022-11-09T05:09:55;9.23;;;6.40;;
5483;SDS011;2764;48.794;8.326;2022-11-09T05:10:57;7.77;;;6.00;;
5483;SDS011;2764;48.794;8.326;2022-11-09T05:12:00;8.30;;;5.80;;
5483;SDS011;2764;48.794;8.326;2022-11-09T05:13:04;9.50;;;6.60;;
5483;SDS011;2764;48.794;8.326;2022-11-09T05:14:09;8.60;;;7.63;;
5483;SDS011;2764;48.794;8.326;2022-11-09T05:15:10;19.00;;;8.20;;
5483;SDS011;2764;48.794;8.326;2022-11-09T05:16:12;12.90;;;8.17;;
5483;SDS011;2764;48.794;8.326;2022-11-09T05:17:18;12.07;;;8.70;;
5483;SDS011;2764;48.794;8.326;2022-11-09T05:18:20;13.67;;;9.53;;
5483;SDS011;2764;48.794;8.326;2022-11-09T05:19:22;12.67;;;7.77;;
5483;SDS011;2764;48.794;8.326;2022-11-09T05:20:24;13.97;;;8.60;;
5483;SDS011;2764;48.794;8.326;2022-11-09T05:21:26;14.93;;;9.50;;
5483;SDS011;2764;48.794;8.326;2022-11-09T05:22:29;11.30;;;8.83;;
5483;SDS011;2764;48.794;8.326;2022-11-09T05:23:49;9.87;;;7.93;;
5483;SDS011;2764;48.794;8.326;2022-11-09T05:25:00;8.30;;;7.50;;
5483;SDS011;2764;48.794;8.326;2022-11-09T05:26:02;20.00;;;9.20;;
5483;SDS011;2764;48.794;8.326;2022-11-09T05:27:06;16.83;;;10.07;;
5483;SDS011;2764;48.794;8.326;2022-11-09T05:28:08;12.93;;;9.20;;
5483;SDS011;2764;48.794;8.326;2022-11-09T05:29:11;16.33;;;10.13;;
5483;SDS011;2764;48.794;8.326;2022-11-09T05:30:14;9.70;;;8.70;;
5483;SDS011;2764;48.794;8.326;2022-11-09T05:31:17;12.90;;;8.73;;
5483;SDS011;2764;48.794;8.326;2022-11-09T05:32:19;14.33;;;10.13;;
5483;SDS011;2764;48.794;8.326;2022-11-09T05:33:20;12.23;;;8.50;;
5483;SDS011;2764;48.794;8.326;2022-11-09T05:34:23;17.13;;;9.27;;
5483;SDS011;2764;48.794;8.326;2022-11-09T05:35:25;15.73;;;10.87;;
5483;SDS011;2764;48.794;8.326;2022-11-09T05:36:27;15.30;;;9.97;;
5483;SDS011;2764;48.794;8.326;2022-11-09T05:37:31;15.53;;;10.67;;
5483;SDS011;2764;48.794;8.326;2022-11-09T05:38:32;15.53;;;10.13;;
5483;SDS011;2764;48.794;8.326;2022-11-09T05:39:36;11.60;;;9.90;;
5483;SDS011;2764;48.794;8.326;2022-11-09T05:40:40;13.60;;;9.20;;
5483;SDS011;2764;48.794;8.326;2022-11-09T05:41:45;22.97;;;9.83;;
5483;SDS011;2764;48.794;8.326;2022-11-09T05:42:47;10.63;;;7.50;;
5483;SDS011;2764;48.794;8.326;2022-11-09T05:43:49;12.70;;;9.37;;
5483;SDS011;2764;48.794;8.326;2022-11-09T05:44:52;8.70;;;7.80;;
5483;SDS011;2764;48.794;8.326;2022-11-09T05:45:55;13.67;;;10.27;;
5483;SDS011;2764;48.794;8.326;2022-11-09T05:47:01;11.53;;;9.57;;
5483;SDS011;2764;48.794;8.326;2022-11-09T05:48:03;13.50;;;10.87;;
5483;SDS011;2764;48.794;8.326;2022-11-09T05:49:05;20.57;;;13.03;;
5483;SDS011;2764;48.794;8.326;2022-11-09T05:50:08;14.20;;;10.60;;
5483;SDS011;2764;48.794;8.326;2022-11-09T05:51:12;13.63;;;9.70;;
5483;SDS011;2764;48.794;8.326;2022-11-09T05:52:15;16.10;;;10.13;;
5483;SDS011;2764;48.794;8.326;2022-11-09T05:53:17;11.60;;;9.10;;
5483;SDS011;2764;48.794;8.326;2022-11-09T05:54:19;9.67;;;8.67;;
5483;SDS011;2764;48.794;8.326;2022-11-09T05:55:20;12.50;;;9.17;;
5483;SDS011;2764;48.794;8.326;2022-11-09T05:56:22;13.60;;;8.60;;
5483;SDS011;2764;48.794;8.326;2022-11-09T05:57:25;12.63;;;9.50;;
5483;SDS011;2764;48.794;8.326;2022-11-09T05:58:27;15.27;;;10.90;;
5483;SDS011;2764;48.794;8.326;2022-11-09T05:59:30;14.13;;;9.30;;
5483;SDS011;2764;48.794;8.326;2022-11-09T06:00:31;9.80;;;8.80;;
5483;SDS011;2764;48.794;8.326;2022-11-09T06:01:34;13.90;;;9.37;;
5483;SDS011;2764;48.794;8.326;2022-11-09T06:02:36;15.47;;;9.57;;
5483;SDS011;2764;48.794;8.326;2022-11-09T06:03:38;13.20;;;10.17;;
5483;SDS011;2764;48.794;8.326;2022-11-09T06:04:43;12.30;;;9.90;;
5483;SDS011;2764;48.794;8.326;2022-11-09T06:05:45;13.37;;;10.47;;
5483;SDS011;2764;48.794;8.326;2022-11-09T06:06:47;12.73;;;8.90;;
5483;SDS011;2764;48.794;8.326;2022-11-09T06:07:49;18.90;;;9.30;;
5483;SDS011;2764;48.794;8.326;2022-11-09T06:08:51;15.00;;;10.97;;
5483;SDS011;2764;48.794;8.326;2022-11-09T06:09:53;17.00;;;9.57;;
5483;SDS011;2764;48.794;8.326;2022-11-09T06:10:58;12.33;;;10.07;;
5483;SDS011;2764;48.794;8.326;2022-11-09T06:12:03;20.97;;;10.97;;
5483;SDS011;2764;48.794;8.326;2022-11-09T06:13:05;19.37;;;10.73;;
5483;SDS011;2764;48.794;8.326;2022-11-09T06:14:07;8.97;;;7.87;;
5483;SDS011;2764;48.794;8.326;2022-11-09T06:15:09;16.97;;;9.60;;
5483;SDS011;2764;48.794;8.326;2022-11-09T06:16:11;18.07;;;9.07;;
5483;SDS011;2764;48.794;8.326;2022-11-09T06:17:14;37.87;;;24.40;;
5483;SDS011;2764;48.794;8.326;2022-11-09T06:18:16;43.70;;;32.20;;
5483;SDS011;2764;48.794;8.326;2022-11-09T06:19:18;27.53;;;17.80;;
5483;SDS011;2764;48.794;8.326;2022-11-09T06:20:21;15.20;;;12.00;;
5483;SDS011;2764;48.794;8.326;2022-11-09T06:21:24;15.77;;;10.70;;
5483;SDS011;2764;48.794;8.326;2022-11-09T06:22:27;12.93;;;10.40;;
5483;SDS011;2764;48.794;8.326;2022-11-09T06:23:29;11.83;;;10.33;;
5483;SDS011;2764;48.794;8.326;2022-11-09T06:24:31;17.03;;;11.50;;
5483;SDS011;2764;48.794;8.326;2022-11-09T06:25:33;15.63;;;9.80;;
5483;SDS011;2764;48.794;8.326;2022-11-09T06:26:36;12.30;;;9.13;;
5483;SDS011;2764;48.794;8.326;2022-11-09T06:27:38;11.03;;;9.77;;